Terminal Aerodrome Forecast
Issued by NWS

Home | Current Version | Previous Version | Text Only | Print | Product List | Glossary On
Versions: 1 2 3 4 5 6 7 8 9 10 11 12 13 14 15 16 17
000
FTUS43 KILX 290522
TAFDEC
TAF
KDEC 290522Z 2906/3006 16008KT P6SM SCT080 BKN250
     FM291300 18008KT P6SM VCTS BKN035CB
     FM291800 21012G17KT P6SM BKN045
     FM292300 21010KT P6SM VCTS BKN050CB
     FM300300 20007KT 6SM -SHRA VCTS OVC045CB=

USA.gov is the U.S. government's official web portal to all federal, state and local government web resources and services.